Bookmark and Share
Track history (hours):
 

Drifting buoy 62909

Last reported at 2012-Sep-13 23:07 UTC. Time now 2014-Apr-18 20:59 UTC.
Position N 28°05' W 037°01'.
Warning: this ship's position is years out of date!

Water temperature 27.4 ° C

NotesDate/timePositionNaut miles runAvg speedWind from/ knotsBaromVisibWave heightAir tempDewpointWater temp
2012-Sep-13 23:07N 28°05' W 037°01'0 0.0 27.4
2012-Sep-13 22:58N 28°05' W 037°01'710.3 27.4
2012-Sep-13 22:18N 28°11' W 037°05'0 0.0 27.4
2012-Sep-13 21:19N 28°11' W 037°05'0 0.0 27.5
2012-Sep-13 01:10N 28°11' W 037°05'127.6 27.4
2012-Sep-13 01:08N 28°12' W 037°06'0 0.0 27.4
2012-Sep-13 00:08N 28°12' W 037°06'112.8 27.5
2012-Sep-13 00:03N 28°11' W 037°07'0 0.0 27.5
2012-Sep-12 23:23N 28°11' W 037°07'0 0.0 27.5
2012-Sep-12 22:19N 28°11' W 037°07'0 0.0 27.6
2012-Sep-12 16:55N 28°11' W 037°07'0 0.0
2012-Sep-12 16:20N 28°11' W 037°07'5 0.5 28.0
2012-Sep-12 05:30N 28°16' W 037°04'0 0.0 27.4
2012-Sep-12 04:55N 28°16' W 037°04'224.1 27.4
2012-Sep-12 04:50N 28°14' W 037°04'3 0.3 27.4
2012-Sep-11 17:00N 28°14' W 037°00'0 0.0
2012-Sep-11 11:16N 28°14' W 037°01'0 0.0
2012-Sep-11 10:48N 28°14' W 037°01'1 0.5 27.3
2012-Sep-11 09:00N 28°14' W 036°60'2 1.1 27.3
2012-Sep-11 07:20N 28°15' W 037°01'2 0.7 27.3
2012-Sep-11 04:04N 28°13' W 037°00'3 0.4 27.3
2012-Sep-10 21:13N 28°10' W 036°59'0 0.0 27.4
2012-Sep-10 19:01N 28°10' W 036°59'0 0.0 27.5
2012-Sep-10 18:15N 28°10' W 036°59'5 5.1
2012-Sep-10 17:20N 28°13' W 036°54'0 0.0 27.5
2012-Sep-10 17:16N 28°13' W 036°54'0 0.0 27.5
2012-Sep-10 11:10N 28°13' W 036°54'0 0.0 27.1
2012-Sep-10 05:49N 28°13' W 036°54'0 0.0 27.1
2012-Sep-10 05:17N 28°13' W 036°54'0 0.0 27.1
2012-Sep-10 05:09N 28°13' W 036°54'1 0.1
2012-Sep-09 21:24N 28°12' W 036°54'2 1.0 27.4
2012-Sep-09 19:26N 28°11' W 036°52'0 0.0 27.4
2012-Sep-09 19:23N 28°11' W 036°52'0 0.0 27.4
2012-Sep-09 17:45N 28°11' W 036°52'0 0.0 27.4
2012-Sep-09 17:24N 28°11' W 036°52'0 0.0 27.4
2012-Sep-09 15:46N 28°11' W 036°52'1 0.2 27.4
2012-Sep-09 11:33N 28°11' W 036°51'0 0.0
2012-Sep-09 11:32N 28°11' W 036°51'2 0.1 27.3
2012-Sep-08 23:08N 28°09' W 036°51'0 0.0 27.3
2012-Sep-08 21:38N 28°09' W 036°51'0 0.0 27.4
2012-Sep-08 21:35N 28°09' W 036°51'1 0.8 27.4
2012-Sep-08 19:49N 28°08' W 036°52'0 0.0 27.5
2012-Sep-08 12:00N 28°08' W 036°51'0 0.0 27.2
2012-Sep-08 11:57N 28°08' W 036°51'115.1 27.2
2012-Sep-08 11:52N 28°07' W 036°51'0 0.0 27.2
2012-Sep-08 10:10N 28°07' W 036°51'0 0.0 27.2
2012-Sep-08 05:45N 28°07' W 036°51'0 0.0 27.2
2012-Sep-08 05:38N 28°07' W 036°51'0 0.0 27.2
2012-Sep-08 05:34N 28°07' W 036°51'0 0.0 27.2
2012-Sep-08 04:33N 28°07' W 036°51'0 0.0 27.3
2012-Sep-07 23:33N 28°07' W 036°51'0 0.0 27.4
2012-Sep-07 23:28N 28°07' W 036°51'110.3 27.4
2012-Sep-07 23:22N 28°08' W 036°52'0 0.0 27.4
2012-Sep-07 22:01N 28°08' W 036°52'5 0.7 27.4
2012-Sep-07 14:29N 28°05' W 036°57'0 0.8 27.4
2012-Sep-07 13:58N 28°05' W 036°57'2 1.4 27.4
2012-Sep-07 12:18N 28°05' W 036°59'0 0.0 27.4
2012-Sep-07 12:03N 28°05' W 036°59'0 0.0
2012-Sep-07 07:13N 28°05' W 036°59'0 0.0 27.4
2012-Sep-07 04:49N 28°05' W 036°59'0 0.0 27.4
2012-Sep-07 04:46N 28°05' W 036°59'2 0.3 27.4
2012-Sep-06 22:14N 28°04' W 037°01'4 2.5
2012-Sep-06 20:34N 27°60' W 037°01'4 2.4 27.6
2012-Sep-06 18:52N 28°04' W 037°01'0 0.0 27.7
2012-Sep-06 17:22N 28°04' W 037°01'4 0.4 27.8
2012-Sep-06 09:17N 28°01' W 036°59'0 0.0
2012-Sep-06 05:59N 28°01' W 036°59'0 0.1 27.4
2012-Sep-06 04:55N 28°01' W 036°59'115.1 27.4
2012-Sep-06 04:50N 28°02' W 036°58'3 6.8 27.4
2012-Sep-06 04:21N 28°02' W 037°02'0 0.0 27.4
2012-Sep-06 00:13N 28°02' W 037°02'0 0.0
2012-Sep-05 16:20N 28°02' W 037°02'0 0.0 27.8
2012-Sep-05 15:54N 28°02' W 037°02'1 0.7 27.8
2012-Sep-05 14:49N 28°01' W 037°01'1 0.8 27.7
2012-Sep-05 13:03N 28°00' W 036°60'0 6.6 27.6
2012-Sep-05 12:59N 28°01' W 036°59'1 1.7 27.6
2012-Sep-05 12:28N 27°60' W 036°59'0 0.0
2012-Sep-05 11:26N 27°60' W 036°59'0 0.0
2012-Sep-05 11:21N 27°60' W 036°59'0 3.6 27.6
2012-Sep-05 11:18N 27°60' W 036°59'113.6 27.6
2012-Sep-05 11:15N 28°00' W 036°59'0 0.0 27.6
2012-Sep-05 10:55N 28°00' W 036°59'3 1.2 27.5
2012-Sep-05 08:07N 28°01' W 036°55'0 0.0 27.5
2012-Sep-05 06:14N 28°01' W 036°55'3 0.3
2012-Sep-04 22:51N 28°04' W 036°55'0 0.0
2012-Sep-04 22:17N 28°04' W 036°55'1 0.2 27.7
2012-Sep-04 19:51N 28°04' W 036°56'2 1.0 27.8
2012-Sep-04 18:04N 28°02' W 036°55'0 0.0 27.9
2012-Sep-04 17:46N 28°02' W 036°55'0 0.0
2012-Sep-04 16:39N 28°02' W 036°55'0 0.0
2012-Sep-04 16:05N 28°02' W 036°55'2 0.7 27.8
2012-Sep-04 13:19N 28°00' W 036°54'111.6 27.6
2012-Sep-04 13:14N 27°60' W 036°54'0 0.0 27.7
2012-Sep-04 11:07N 27°60' W 036°54'1 8.5
2012-Sep-04 10:58N 27°59' W 036°52'0 0.0
2012-Sep-04 10:55N 27°59' W 036°52'0 0.1
2012-Sep-04 06:50N 27°60' W 036°53'0 1.0 27.5
2012-Sep-04 06:22N 27°60' W 036°52'1 8.6 27.5
2012-Sep-04 06:16N 27°59' W 036°53'0 0.0 27.5
2012-Sep-04 05:22N 27°59' W 036°53'1 8.1 27.5
2012-Sep-04 05:15N 27°60' W 036°52'0 0.0 27.5
2012-Sep-04 04:46N 27°60' W 036°52'0 1.6 27.5
2012-Sep-04 04:43N 27°60' W 036°52'0 0.0 27.5
2012-Sep-04 04:38N 27°60' W 036°52'0 0.2 27.5
2012-Sep-04 03:35N 27°60' W 036°52'110.7 27.5
2012-Sep-04 03:31N 27°59' W 036°52'0 0.0 27.5
2012-Sep-04 00:58N 27°59' W 036°52'113.7 27.6
2012-Sep-04 00:55N 27°59' W 036°52'0 0.0 27.6
2012-Sep-04 00:16N 27°59' W 036°52'0 0.0 27.6
2012-Sep-03 23:20N 27°59' W 036°52'0 3.2 27.6
2012-Sep-03 23:14N 27°59' W 036°52'0 5.6 27.6
2012-Sep-03 23:11N 27°59' W 036°52'   27.6

Dump ship's entire track history

sailing weather and tide predictions

Buoy 62909